sensor_id;sensor_type;location;lat;lon;timestamp;temperature;humidity
45233;DHT22;30969;51.052;17.056;2023-04-25T04:55:10;8.90;75.00
45233;DHT22;30969;51.052;17.056;2023-04-25T05:00:14;9.00;75.60
45233;DHT22;30969;51.052;17.056;2023-04-25T05:05:18;9.40;73.50
45233;DHT22;30969;51.052;17.056;2023-04-25T05:10:23;9.70;72.10
45233;DHT22;30969;51.052;17.056;2023-04-25T05:15:27;10.00;71.00
45233;DHT22;30969;51.052;17.056;2023-04-25T05:20:31;10.00;69.60
45233;DHT22;30969;51.052;17.056;2023-04-25T05:25:37;10.20;68.80
45233;DHT22;30969;51.052;17.056;2023-04-25T05:30:40;10.40;68.50
45233;DHT22;30969;51.052;17.056;2023-04-25T05:35:44;10.60;67.60
45233;DHT22;30969;51.052;17.056;2023-04-25T05:40:49;10.70;66.50
45233;DHT22;30969;51.052;17.056;2023-04-25T05:45:52;10.80;65.80
45233;DHT22;30969;51.052;17.056;2023-04-25T05:50:56;10.70;64.90
45233;DHT22;30969;51.052;17.056;2023-04-25T05:56:01;10.80;64.90
45233;DHT22;30969;51.052;17.056;2023-04-25T06:01:04;10.90;64.60
45233;DHT22;30969;51.052;17.056;2023-04-25T06:06:08;11.00;63.80
45233;DHT22;30969;51.052;17.056;2023-04-25T06:11:13;11.00;63.30
45233;DHT22;30969;51.052;17.056;2023-04-25T06:16:17;10.80;63.20
45233;DHT22;30969;51.052;17.056;2023-04-25T06:21:20;10.70;63.70
45233;DHT22;30969;51.052;17.056;2023-04-25T06:26:25;10.70;63.90
45233;DHT22;30969;51.052;17.056;2023-04-25T06:31:29;10.80;63.20
45233;DHT22;30969;51.052;17.056;2023-04-25T06:36:34;11.00;63.00
45233;DHT22;30969;51.052;17.056;2023-04-25T06:41:39;11.10;61.70
45233;DHT22;30969;51.052;17.056;2023-04-25T06:46:42;11.30;61.00
45233;DHT22;30969;51.052;17.056;2023-04-25T06:51:46;11.30;60.90
45233;DHT22;30969;51.052;17.056;2023-04-25T06:56:51;11.30;59.90
45233;DHT22;30969;51.052;17.056;2023-04-25T07:01:55;11.30;60.60
45233;DHT22;30969;51.052;17.056;2023-04-25T07:06:59;11.50;60.30
45233;DHT22;30969;51.052;17.056;2023-04-25T07:12:05;11.50;58.80
45233;DHT22;30969;51.052;17.056;2023-04-25T07:17:37;11.50;59.40
45233;DHT22;30969;51.052;17.056;2023-04-25T07:34:04;11.30;58.50
45233;DHT22;30969;51.052;17.056;2023-04-25T07:39:07;11.40;59.20
45233;DHT22;30969;51.052;17.056;2023-04-25T07:44:11;11.50;58.30
45233;DHT22;30969;51.052;17.056;2023-04-25T07:49:16;11.60;58.90
45233;DHT22;30969;51.052;17.056;2023-04-25T07:54:19;11.60;58.10
45233;DHT22;30969;51.052;17.056;2023-04-25T07:59:23;11.80;58.20
45233;DHT22;30969;51.052;17.056;2023-04-25T08:04:31;12.10;57.70
45233;DHT22;30969;51.052;17.056;2023-04-25T08:09:35;12.20;57.30
45233;DHT22;30969;51.052;17.056;2023-04-25T08:14:39;12.40;56.90
45233;DHT22;30969;51.052;17.056;2023-04-25T08:19:44;12.60;56.50
45233;DHT22;30969;51.052;17.056;2023-04-25T08:24:47;12.60;56.50
45233;DHT22;30969;51.052;17.056;2023-04-25T08:29:51;12.50;57.10
45233;DHT22;30969;51.052;17.056;2023-04-25T08:34:56;12.40;57.20
45233;DHT22;30969;51.052;17.056;2023-04-25T08:39:59;12.40;58.00
45233;DHT22;30969;51.052;17.056;2023-04-25T08:45:03;12.50;58.20
45233;DHT22;30969;51.052;17.056;2023-04-25T08:50:09;12.50;57.30
45233;DHT22;30969;51.052;17.056;2023-04-25T08:55:13;12.30;57.80
45233;DHT22;30969;51.052;17.056;2023-04-25T09:00:18;12.40;59.00
45233;DHT22;30969;51.052;17.056;2023-04-25T09:05:23;12.50;59.40
45233;DHT22;30969;51.052;17.056;2023-04-25T09:10:27;12.70;56.30
45233;DHT22;30969;51.052;17.056;2023-04-25T09:15:31;12.80;55.20
45233;DHT22;30969;51.052;17.056;2023-04-25T09:20:41;13.00;55.60
45233;DHT22;30969;51.052;17.056;2023-04-25T09:26:01;13.30;53.50
45233;DHT22;30969;51.052;17.056;2023-04-25T09:31:05;13.50;53.60
45233;DHT22;30969;51.052;17.056;2023-04-25T09:36:10;13.70;51.00
45233;DHT22;30969;51.052;17.056;2023-04-25T09:41:22;13.70;52.10
45233;DHT22;30969;51.052;17.056;2023-04-25T09:46:33;13.40;53.30
45233;DHT22;30969;51.052;17.056;2023-04-25T09:51:38;13.50;51.40
45233;DHT22;30969;51.052;17.056;2023-04-25T09:56:42;13.60;51.20
45233;DHT22;30969;51.052;17.056;2023-04-25T10:01:48;13.50;51.40
45233;DHT22;30969;51.052;17.056;2023-04-25T10:06:54;13.70;51.90
45233;DHT22;30969;51.052;17.056;2023-04-25T10:11:58;13.70;52.30
45233;DHT22;30969;51.052;17.056;2023-04-25T10:17:02;13.60;52.00
45233;DHT22;30969;51.052;17.056;2023-04-25T10:22:11;13.40;52.50
45233;DHT22;30969;51.052;17.056;2023-04-25T10:27:16;13.30;53.10
45233;DHT22;30969;51.052;17.056;2023-04-25T10:32:20;13.30;54.40
45233;DHT22;30969;51.052;17.056;2023-04-25T10:37:25;13.40;53.00
45233;DHT22;30969;51.052;17.056;2023-04-25T10:42:29;13.50;52.60
45233;DHT22;30969;51.052;17.056;2023-04-25T10:47:35;13.70;51.60
45233;DHT22;30969;51.052;17.056;2023-04-25T10:52:41;13.80;51.70
45233;DHT22;30969;51.052;17.056;2023-04-25T10:57:45;13.80;50.40
45233;DHT22;30969;51.052;17.056;2023-04-25T11:02:52;13.70;50.70
45233;DHT22;30969;51.052;17.056;2023-04-25T11:07:58;13.90;50.90
45233;DHT22;30969;51.052;17.056;2023-04-25T11:13:10;13.90;50.70
45233;DHT22;30969;51.052;17.056;2023-04-25T11:18:16;14.10;50.20
45233;DHT22;30969;51.052;17.056;2023-04-25T11:23:22;14.30;49.60
45233;DHT22;30969;51.052;17.056;2023-04-25T11:28:26;14.50;46.70
45233;DHT22;30969;51.052;17.056;2023-04-25T11:33:31;14.50;47.00
45233;DHT22;30969;51.052;17.056;2023-04-25T11:38:35;14.80;47.50
45233;DHT22;30969;51.052;17.056;2023-04-25T11:43:39;14.80;45.00
45233;DHT22;30969;51.052;17.056;2023-04-25T11:48:44;14.40;44.60
45233;DHT22;30969;51.052;17.056;2023-04-25T11:53:50;14.20;44.80
45233;DHT22;30969;51.052;17.056;2023-04-25T11:58:57;14.10;45.30
45233;DHT22;30969;51.052;17.056;2023-04-25T12:04:10;14.40;46.00
45233;DHT22;30969;51.052;17.056;2023-04-25T12:09:18;14.70;45.00
45233;DHT22;30969;51.052;17.056;2023-04-25T12:14:25;14.80;44.80
45233;DHT22;30969;51.052;17.056;2023-04-25T12:19:32;14.70;45.30
45233;DHT22;30969;51.052;17.056;2023-04-25T12:24:38;14.50;44.10
45233;DHT22;30969;51.052;17.056;2023-04-25T12:29:50;14.40;44.50
45233;DHT22;30969;51.052;17.056;2023-04-25T12:34:54;14.30;44.90
45233;DHT22;30969;51.052;17.056;2023-04-25T12:39:59;14.40;45.50
45233;DHT22;30969;51.052;17.056;2023-04-25T12:45:03;14.50;45.90
45233;DHT22;30969;51.052;17.056;2023-04-25T12:50:07;14.60;44.80
45233;DHT22;30969;51.052;17.056;2023-04-25T12:55:12;15.00;44.90
45233;DHT22;30969;51.052;17.056;2023-04-25T13:00:16;15.20;43.40
45233;DHT22;30969;51.052;17.056;2023-04-25T13:05:21;14.90;43.20
45233;DHT22;30969;51.052;17.056;2023-04-25T13:10:26;14.70;43.40
45233;DHT22;30969;51.052;17.056;2023-04-25T13:15:30;14.90;43.50
45233;DHT22;30969;51.052;17.056;2023-04-25T13:20:34;14.90;43.40
45233;DHT22;30969;51.052;17.056;2023-04-25T13:25:40;15.00;43.00
45233;DHT22;30969;51.052;17.056;2023-04-25T13:30:44;15.20;43.10
45233;DHT22;30969;51.052;17.056;2023-04-25T13:35:48;15.40;41.60
45233;DHT22;30969;51.052;17.056;2023-04-25T13:40:57;15.50;41.00
45233;DHT22;30969;51.052;17.056;2023-04-25T13:46:00;15.50;41.00
45233;DHT22;30969;51.052;17.056;2023-04-25T13:51:04;15.40;41.00
45233;DHT22;30969;51.052;17.056;2023-04-25T13:56:09;15.10;42.30
45233;DHT22;30969;51.052;17.056;2023-04-25T14:01:14;14.70;43.40
45233;DHT22;30969;51.052;17.056;2023-04-25T14:06:17;14.60;43.40
45233;DHT22;30969;51.052;17.056;2023-04-25T14:11:27;14.60;44.10
45233;DHT22;30969;51.052;17.056;2023-04-25T14:16:31;14.70;43.20
45233;DHT22;30969;51.052;17.056;2023-04-25T14:21:35;14.50;43.60
45233;DHT22;30969;51.052;17.056;2023-04-25T14:26:40;15.00;43.60
45233;DHT22;30969;51.052;17.056;2023-04-25T14:31:44;16.40;40.90
45233;DHT22;30969;51.052;17.056;2023-04-25T14:36:48;16.40;39.10
45233;DHT22;30969;51.052;17.056;2023-04-25T14:41:53;15.80;39.30
45233;DHT22;30969;51.052;17.056;2023-04-25T14:46:56;15.20;42.10
45233;DHT22;30969;51.052;17.056;2023-04-25T14:52:00;14.70;42.40
45233;DHT22;30969;51.052;17.056;2023-04-25T14:57:05;14.50;43.40
45233;DHT22;30969;51.052;17.056;2023-04-25T15:02:10;14.10;44.50
45233;DHT22;30969;51.052;17.056;2023-04-25T15:07:14;13.80;44.30
45233;DHT22;30969;51.052;17.056;2023-04-25T15:12:20;13.80;45.60
45233;DHT22;30969;51.052;17.056;2023-04-25T15:17:24;13.90;46.00
45233;DHT22;30969;51.052;17.056;2023-04-25T15:22:28;13.80;47.60
45233;DHT22;30969;51.052;17.056;2023-04-25T15:27:32;13.30;47.60
45233;DHT22;30969;51.052;17.056;2023-04-25T15:32:36;13.00;49.20
45233;DHT22;30969;51.052;17.056;2023-04-25T15:37:40;12.80;50.40
45233;DHT22;30969;51.052;17.056;2023-04-25T15:42:46;12.80;50.40
45233;DHT22;30969;51.052;17.056;2023-04-25T15:47:54;12.60;51.50
45233;DHT22;30969;51.052;17.056;2023-04-25T15:52:58;12.70;51.70
45233;DHT22;30969;51.052;17.056;2023-04-25T15:58:03;12.80;52.00
45233;DHT22;30969;51.052;17.056;2023-04-25T16:03:13;12.80;52.80
45233;DHT22;30969;51.052;17.056;2023-04-25T16:08:17;12.50;55.60
45233;DHT22;30969;51.052;17.056;2023-04-25T16:13:22;12.30;57.90
45233;DHT22;30969;51.052;17.056;2023-04-25T16:18:25;12.40;58.90
45233;DHT22;30969;51.052;17.056;2023-04-25T16:23:29;12.50;59.20
45233;DHT22;30969;51.052;17.056;2023-04-25T16:28:35;12.40;59.60
45233;DHT22;30969;51.052;17.056;2023-04-25T16:33:38;12.50;59.10
45233;DHT22;30969;51.052;17.056;2023-04-25T16:38:42;12.50;57.40
45233;DHT22;30969;51.052;17.056;2023-04-25T16:43:47;12.40;57.50
45233;DHT22;30969;51.052;17.056;2023-04-25T16:48:51;12.10;55.90
45233;DHT22;30969;51.052;17.056;2023-04-25T16:53:54;11.90;57.00
45233;DHT22;30969;51.052;17.056;2023-04-25T16:59:00;11.70;59.10
45233;DHT22;30969;51.052;17.056;2023-04-25T17:04:03;11.70;60.20
45233;DHT22;30969;51.052;17.056;2023-04-25T17:09:07;11.50;60.90
45233;DHT22;30969;51.052;17.056;2023-04-25T17:14:13;11.40;61.40
45233;DHT22;30969;51.052;17.056;2023-04-25T17:19:16;11.20;62.40
45233;DHT22;30969;51.052;17.056;2023-04-25T17:24:20;11.30;62.40
45233;DHT22;30969;51.052;17.056;2023-04-25T17:29:25;11.10;64.80
45233;DHT22;30969;51.052;17.056;2023-04-25T17:34:29;11.00;64.50
45233;DHT22;30969;51.052;17.056;2023-04-25T17:39:33;10.80;65.90
45233;DHT22;30969;51.052;17.056;2023-04-25T17:44:38;10.80;66.60
45233;DHT22;30969;51.052;17.056;2023-04-25T17:49:41;10.90;66.50
45233;DHT22;30969;51.052;17.056;2023-04-25T17:54:44;11.00;66.00
45233;DHT22;30969;51.052;17.056;2023-04-25T17:59:52;11.00;66.40
45233;DHT22;30969;51.052;17.056;2023-04-25T18:04:57;11.10;65.60
45233;DHT22;30969;51.052;17.056;2023-04-25T18:10:01;11.10;65.10
45233;DHT22;30969;51.052;17.056;2023-04-25T18:15:09;11.10;64.60
45233;DHT22;30969;51.052;17.056;2023-04-25T18:20:13;11.10;64.60
45233;DHT22;30969;51.052;17.056;2023-04-25T18:25:17;10.90;64.40
45233;DHT22;30969;51.052;17.056;2023-04-25T18:30:22;10.70;64.70
45233;DHT22;30969;51.052;17.056;2023-04-25T18:35:26;10.70;64.40
45233;DHT22;30969;51.052;17.056;2023-04-25T18:40:30;10.50;65.00
45233;DHT22;30969;51.052;17.056;2023-04-25T18:45:35;10.60;64.80
45233;DHT22;30969;51.052;17.056;2023-04-25T18:50:39;10.50;65.20
45233;DHT22;30969;51.052;17.056;2023-04-25T18:55:44;10.20;65.90
45233;DHT22;30969;51.052;17.056;2023-04-25T19:00:50;10.30;65.90
45233;DHT22;30969;51.052;17.056;2023-04-25T19:05:53;10.40;65.90
45233;DHT22;30969;51.052;17.056;2023-04-25T19:10:56;10.40;66.30
45233;DHT22;30969;51.052;17.056;2023-04-25T19:16:10;10.50;65.80
45233;DHT22;30969;51.052;17.056;2023-04-25T19:21:14;10.40;65.50
45233;DHT22;30969;51.052;17.056;2023-04-25T19:26:17;10.30;65.90
45233;DHT22;30969;51.052;17.056;2023-04-25T19:31:23;9.90;66.70
45233;DHT22;30969;51.052;17.056;2023-04-25T19:36:29;9.80;67.10
45233;DHT22;30969;51.052;17.056;2023-04-25T19:41:37;9.70;67.10
45233;DHT22;30969;51.052;17.056;2023-04-25T19:46:42;9.50;67.30
45233;DHT22;30969;51.052;17.056;2023-04-25T19:51:47;9.40;66.70
45233;DHT22;30969;51.052;17.056;2023-04-25T19:56:51;9.30;66.20
45233;DHT22;30969;51.052;17.056;2023-04-25T20:01:56;9.20;66.00
45233;DHT22;30969;51.052;17.056;2023-04-25T20:07:00;9.20;65.80
45233;DHT22;30969;51.052;17.056;2023-04-25T20:12:04;9.10;64.90
45233;DHT22;30969;51.052;17.056;2023-04-25T20:17:09;9.00;64.70
45233;DHT22;30969;51.052;17.056;2023-04-25T20:22:13;9.00;64.00
45233;DHT22;30969;51.052;17.056;2023-04-25T20:27:16;8.90;63.70
45233;DHT22;30969;51.052;17.056;2023-04-25T20:32:22;8.70;63.40
45233;DHT22;30969;51.052;17.056;2023-04-25T20:37:26;8.60;63.00
45233;DHT22;30969;51.052;17.056;2023-04-25T20:42:32;8.60;62.40
45233;DHT22;30969;51.052;17.056;2023-04-25T20:47:37;8.60;62.00
45233;DHT22;30969;51.052;17.056;2023-04-25T20:52:41;8.60;61.80
45233;DHT22;30969;51.052;17.056;2023-04-25T20:57:45;8.70;60.90
45233;DHT22;30969;51.052;17.056;2023-04-25T21:02:50;8.80;60.50
45233;DHT22;30969;51.052;17.056;2023-04-25T21:07:54;8.80;60.00
45233;DHT22;30969;51.052;17.056;2023-04-25T21:12:58;8.90;60.00
45233;DHT22;30969;51.052;17.056;2023-04-25T21:18:04;8.90;60.20
45233;DHT22;30969;51.052;17.056;2023-04-25T21:23:08;8.80;60.80
45233;DHT22;30969;51.052;17.056;2023-04-25T21:28:11;8.70;62.00
45233;DHT22;30969;51.052;17.056;2023-04-25T21:33:16;8.60;62.80
45233;DHT22;30969;51.052;17.056;2023-04-25T21:38:20;8.60;63.30
45233;DHT22;30969;51.052;17.056;2023-04-25T21:43:23;8.60;63.60
45233;DHT22;30969;51.052;17.056;2023-04-25T21:48:28;8.60;64.00
45233;DHT22;30969;51.052;17.056;2023-04-25T21:53:32;8.50;64.20
45233;DHT22;30969;51.052;17.056;2023-04-25T21:58:35;8.50;64.30
45233;DHT22;30969;51.052;17.056;2023-04-25T22:03:40;8.60;63.90
45233;DHT22;30969;51.052;17.056;2023-04-25T22:08:44;8.60;63.80
45233;DHT22;30969;51.052;17.056;2023-04-25T22:13:48;8.50;63.40
45233;DHT22;30969;51.052;17.056;2023-04-25T22:18:53;8.40;62.90
45233;DHT22;30969;51.052;17.056;2023-04-25T22:23:57;8.30;62.70
45233;DHT22;30969;51.052;17.056;2023-04-25T22:29:01;8.30;62.80
